Latest Weather Observations for Middle Point

IDD60901

Issued at 9:45 pm CST Wednesday 22 October 2014 (issued every 10 minutes, with the page automatically refreshed every 10 minutes)

About weather observations | Map of Darwin area stations | Latest observations for Darwin area | Other Formats
Station Details ID: 014041 Name: MIDDLE POINT Lat: -12.61 Lon: 131.30 Height: 14.1 m
Data from the previous 72 hours. | See also: Recent months at Middle Point
Date/Time
CST
Tmp

°C
App
Tmp
°C
Dew
Point
°C
Rel
Hum
%
Delta-T

°C
Wind Press
QNH
hPa
Press
MSL
hPa
Rain
since
9 am
mm
Dir
 
Spd
km/h
Gust
km/h
Spd
kts
Gust
kts
22/09:30pm 27.6 30.7 22.8 75 3.3 NNE 11 15 6 8 1013.1 1012.9 0.0
22/09:00pm 27.6 30.8 22.3 73 3.6 N 9 13 5 7 1012.6 1012.4 0.0
22/08:30pm 27.9 29.9 20.7 65 4.8 N 11 17 6 9 1012.0 1011.8 0.0
22/08:00pm 28.4 30.1 20.2 61 5.4 N 11 17 6 9 1011.6 1011.4 0.0
22/07:30pm 29.5 30.9 19.5 55 6.5 N 11 15 6 8 1011.1 1010.9 0.0
22/07:00pm 29.8 31.3 18.9 52 7.1 N 9 13 5 7 1010.3 1010.2 0.0
22/06:30pm 31.7 32.2 18.3 45 8.7 N 13 17 7 9 1009.9 1009.8 0.0
22/06:00pm 33.6 34.5 19.3 43 9.4 NNW 13 19 7 10 1009.4 1009.3 0.0
22/05:30pm 34.3 34.4 17.5 36 10.8 N 13 17 7 9 1009.1 1009.0 0.0
22/05:00pm 35.9 34.1 14.5 27 13.3 N 17 22 9 12 1008.8 1008.7 0.0
22/04:30pm 35.8 32.5 10.8 22 14.7 ESE 19 32 10 17 1008.9 1008.8 0.0
22/04:00pm 37.1 33.9 11.1 21 15.4 ESE 19 30 10 16 1009.0 1008.9 0.0
22/03:30pm 35.6 32.2 12.5 24 13.9 NE 22 30 12 16 1009.1 1009.0 0.0
22/03:00pm 36.7 35.5 12.8 24 14.5 ESE 11 20 6 11 1009.5 1009.4 0.0
22/02:30pm 36.8 34.9 14.1 25 14.1 E 17 22 9 12 1010.0 1009.9 0.0
22/02:00pm 36.1 34.9 14.1 26 13.6 NE 13 22 7 12 1010.7 1010.6 0.0
22/01:30pm 35.5 34.4 15.3 30 12.7 SE 15 26 8 14 1011.6 1011.4 0.0
22/01:00pm 34.6 33.6 14.5 30 12.4 ESE 13 22 7 12 1012.2 1012.0 0.0
22/12:30pm 35.6 35.1 15.9 31 12.5 E 13 33 7 18 1012.9 1012.7 0.0
22/12:00pm 33.8 33.2 15.7 33 11.3 E 13 24 7 13 1013.4 1013.2 0.0
22/11:30am 33.9 33.3 16.7 35 10.9 ENE 15 20 8 11 1013.9 1013.7 0.0
22/11:00am 32.4 33.6 18.2 42 9.2 ESE 9 17 5 9 1014.4 1014.2 0.0
22/10:30am 32.6 33.8 19.1 44 8.8 ENE 11 22 6 12 1015.0 1014.8 0.0
22/10:00am 31.5 33.4 19.8 49 7.7 ESE 9 19 5 10 1015.4 1015.2 0.0
22/09:30am 31.1 33.2 20.1 52 7.3 E 9 26 5 14 1015.5 1015.3 0.0
22/09:00am 30.2 33.2 21.3 59 6.0 N 7 19 4 10 1015.4 1015.2 0.0
22/08:30am 28.4 31.3 20.7 63 5.1 N 6 9 3 5 1015.0 1014.8 0.0
22/08:00am 27.5 32.3 22.2 73 3.6 S 0 2 0 1 1014.7 1014.5 0.0
22/07:30am 24.3 28.6 22.0 87 1.5 W 2 6 1 3 1014.4 1014.2 0.0
22/07:00am 21.7 25.6 20.3 92 0.9 CALM 0 0 0 0 1014.0 1013.8 0.0
22/06:30am 20.4 23.7 19.1 92 0.8 CALM 0 0 0 0 1013.7 1013.5 0.0
22/06:00am 21.0 24.6 19.7 92 0.8 NW 0 0 0 0 1013.4 1013.2 0.0
22/05:30am 21.2 24.8 19.7 91 1.0 CALM 0 0 0 0 1013.3 1013.1 0.0
22/05:00am 20.7 22.8 19.0 90 1.1 NW 6 7 3 4 1012.9 1012.7 0.0
22/04:30am 21.2 23.1 19.7 91 1.0 N 9 11 5 6 1013.1 1012.9 0.0
22/04:00am 22.2 25.8 19.7 86 1.6 CALM 0 2 0 1 1013.4 1013.2 0.0
22/03:30am 22.9 25.6 20.6 87 1.5 E 7 7 4 4 1013.4 1013.2 0.0
22/03:00am 23.2 25.9 20.7 86 1.6 ENE 7 11 4 6 1013.4 1013.2 0.0
22/02:30am 23.6 26.6 20.9 85 1.8 NNE 6 7 3 4 1013.4 1013.2 0.0
22/02:00am 22.8 25.3 19.8 83 1.9 NNW 6 6 3 3 1013.4 1013.2 0.0
22/01:30am 24.0 27.0 20.9 83 2.0 N 6 6 3 3 1013.7 1013.5 0.0
22/01:00am 24.3 27.6 20.8 81 2.3 NNW 4 4 2 2 1014.1 1013.9 0.0
22/12:30am 24.9 28.5 21.2 80 2.4 NNW 4 7 2 4 1014.4 1014.2 0.0
22/12:00am 25.6 28.7 21.5 78 2.7 NNW 7 13 4 7 1014.6 1014.4 0.0
 
Date/Time
CST
Tmp

°C
App
Tmp
°C
Dew
Point
°C
Rel
Hum
%
Delta-T

°C
Wind Press
QNH
hPa
Press
MSL
hPa
Rain
since
9 am
mm
Dir
 
Spd
km/h
Gust
km/h
Spd
kts
Gust
kts
21/11:30pm 25.4 28.2 21.5 79 2.6 N 9 11 5 6 1014.8 1014.6 0.0
21/11:00pm 25.0 27.9 21.1 79 2.6 NNW 7 9 4 5 1014.9 1014.7 0.0
21/10:30pm 26.0 28.9 21.0 74 3.3 N 7 9 4 5 1014.8 1014.6 0.0
21/10:00pm 26.7 28.9 21.2 72 3.6 N 11 19 6 10 1014.3 1014.1 0.0
21/09:30pm 27.1 28.3 20.7 68 4.2 N 15 19 8 10 1014.0 1013.8 0.0
21/09:00pm 26.9 28.7 19.5 64 4.8 N 9 13 5 7 1013.5 1013.3 0.0
21/08:30pm 26.1 26.9 16.4 55 6.0 NNE 7 11 4 6 1013.1 1012.9 0.0
21/08:00pm 27.4 27.4 15.1 47 7.5 NNE 9 13 5 7 1012.6 1012.4 0.0
21/07:30pm 27.9 27.5 15.2 46 7.7 N 11 15 6 8 1012.1 1011.9 0.0
21/07:00pm 28.6 28.7 14.4 41 8.6 N 7 9 4 5 1011.5 1011.3 0.0
21/06:30pm 31.1 30.5 13.4 34 10.6 NNE 9 13 5 7 1010.9 1010.7 0.0
21/06:00pm 32.9 31.9 13.5 30 11.7 N 11 15 6 8 1010.5 1010.4 0.0
21/05:30pm 34.5 33.1 13.3 27 12.9 N 13 20 7 11 1010.2 1010.1 0.0
21/05:00pm 34.9 33.6 13.7 28 13.0 N 13 17 7 9 1010.0 1009.9 0.0
21/04:30pm 37.6 36.0 11.5 21 15.6 SE 11 20 6 11 1009.9 1009.8 0.0
21/04:00pm 37.4 35.0 9.9 19 16.0 ESE 13 26 7 14 1010.0 1009.9 0.0
21/03:30pm 36.8 33.6 8.6 18 16.1 E 15 22 8 12 1010.1 1010.0 0.0
21/03:00pm 37.9 34.4 10.3 19 16.2 E 19 26 10 14 1010.4 1010.3 0.0
21/02:30pm 36.4 33.2 11.3 22 14.9 ESE 19 28 10 15 1010.9 1010.7 0.0
21/02:00pm 36.8 34.1 11.6 22 15.0 ENE 17 30 9 16 1011.4 1011.2 0.0
21/01:30pm 36.0 32.7 11.6 23 14.5 E 20 35 11 19 1012.3 1012.1 0.0
21/01:00pm 35.6 34.5 11.9 24 14.1 SE 9 28 5 15 1013.0 1012.8 0.0
21/12:30pm 35.1 31.8 11.5 24 14.0 ENE 20 32 11 17 1013.8 1013.6 0.0
21/12:00pm 35.6 32.6 11.9 24 14.1 ESE 19 28 10 15 1014.4 1014.2 0.0
21/11:30am 34.7 32.8 13.0 27 13.1 E 15 24 8 13 1014.9 1014.7 0.0
21/11:00am 33.4 31.3 12.4 28 12.5 E 15 32 8 17 1015.3 1015.1 0.0
21/10:30am 33.3 31.7 13.9 31 11.8 E 15 22 8 12 1015.8 1015.6 0.0
21/10:00am 31.9 31.6 14.5 34 10.6 ENE 9 13 5 7 1016.1 1015.9 0.0
21/09:30am 31.2 30.7 16.8 42 9.1 E 15 24 8 13 1016.3 1016.1 0.0
21/09:00am 30.8 31.1 18.8 48 7.8 E 15 24 8 13 1016.3 1016.1 0.0
21/08:30am 29.4 31.4 20.8 60 5.7 E 11 19 6 10 1015.9 1015.7 0.0
21/08:00am 27.3 30.3 21.3 69 4.0 ENE 7 11 4 6 1015.5 1015.3 0.0
21/07:30am 25.3 29.9 21.8 81 2.3 CALM 0 0 0 0 1015.1 1014.9 0.0
21/07:00am 21.9 25.7 20.2 90 1.1 CALM 0 0 0 0 1014.7 1014.5 0.0
21/06:30am 20.1 22.2 18.1 88 1.2 WSW 4 6 2 3 1014.4 1014.2 0.0
21/06:00am 20.6 23.6 18.4 87 1.4 CALM 0 0 0 0 1014.2 1014.0 0.0
21/05:30am 20.8 23.8 18.4 86 1.5 CALM 0 2 0 1 1013.9 1013.7 0.0
21/05:00am 21.3 23.4 19.4 89 1.2 N 7 7 4 4 1013.6 1013.4 0.0
21/04:30am 20.9 23.8 19.0 89 1.2 N 2 4 1 2 1013.7 1013.5 0.0
21/04:00am 21.1 23.8 18.7 86 1.5 N 2 2 1 1 1013.6 1013.4 0.0
21/03:30am 21.1 23.7 18.3 84 1.7 N 2 4 1 2 1013.4 1013.2 0.0
21/03:00am 22.2 25.5 19.2 83 1.9 CALM 0 0 0 0 1013.5 1013.3 0.0
21/02:30am 22.6 26.2 19.8 84 1.8 CALM 0 0 0 0 1013.6 1013.4 0.0
21/02:00am 23.0 26.5 19.6 81 2.2 CALM 0 4 0 2 1014.1 1013.9 0.0
21/01:30am 24.2 26.7 20.3 79 2.5 NE 7 11 4 6 1014.1 1013.9 0.0
21/01:00am 24.6 27.3 20.7 79 2.6 NE 7 9 4 5 1014.3 1014.1 0.0
21/12:30am 24.4 26.8 20.1 77 2.8 NNE 7 9 4 5 1014.5 1014.3 0.0
21/12:00am 24.1 26.3 19.6 76 2.9 NNE 7 9 4 5 1014.6 1014.4 0.0
 
Date/Time
CST
Tmp

°C
App
Tmp
°C
Dew
Point
°C
Rel
Hum
%
Delta-T

°C
Wind Press
QNH
hPa
Press
MSL
hPa
Rain
since
9 am
mm
Dir
 
Spd
km/h
Gust
km/h
Spd
kts
Gust
kts
20/11:30pm 23.7 25.6 18.6 73 3.2 N 6 7 3 4 1014.5 1014.3 0.0
20/11:00pm 22.6 24.1 16.6 69 3.7 NW 4 6 2 3 1014.3 1014.1 0.0
20/10:30pm 23.9 25.5 16.9 65 4.3 N 4 6 2 3 1014.1 1013.9 0.0
20/10:00pm 25.2 26.9 17.1 60 5.0 NNW 4 4 2 2 1013.9 1013.7 0.0
20/09:30pm 24.9 25.8 16.1 58 5.4 WNW 6 7 3 4 1013.4 1013.2 0.0
20/09:00pm 26.2 26.8 16.7 56 5.9 N 9 11 5 6 1013.1 1012.9 0.0
20/08:30pm 26.6 26.5 15.9 51 6.6 N 11 15 6 8 1012.6 1012.4 0.0
20/08:00pm 27.3 26.9 15.3 48 7.3 N 11 13 6 7 1012.0 1011.8 0.0
20/07:30pm 27.9 27.8 14.9 45 7.9 N 9 13 5 7 1011.6 1011.4 0.0
20/07:00pm 29.6 28.0 12.9 35 9.9 N 13 22 7 12 1010.9 1010.7 0.0
20/06:30pm 30.9 29.5 12.3 32 11.0 NNE 11 15 6 8 1009.8 1009.7 0.0
20/06:00pm 32.7 31.0 12.3 28 12.1 N 13 20 7 11 1009.5 1009.4 0.0
20/05:30pm 33.6 31.3 13.1 29 12.4 N 17 24 9 13 1009.1 1009.0 0.0
20/05:00pm 35.1 32.9 13.3 27 13.3 N 17 22 9 12 1008.9 1008.8 0.0
20/04:30pm 34.7 32.0 13.5 28 12.9 N 20 28 11 15 1008.8 1008.7 0.0
20/04:00pm 35.8 33.8 15.0 29 13.0 N 19 28 10 15 1008.8 1008.7 0.0
20/03:30pm 34.6 34.3 16.4 33 11.6 N 13 22 7 12 1009.1 1009.0 0.0
20/03:00pm 36.5 32.5 9.2 19 15.7 ENE 20 28 11 15 1009.3 1009.2 0.0
20/02:30pm 37.5 33.5 9.2 18 16.4 E 20 33 11 18 1009.7 1009.6 0.0
20/02:00pm 37.0 33.9 8.8 18 16.2 SE 15 33 8 18 1010.2 1010.1 0.0
20/01:30pm 37.6 34.4 10.0 19 16.2 ESE 17 32 9 17 1011.0 1010.8 0.0
20/01:00pm 37.1 32.9 11.1 21 15.4 SE 24 39 13 21 1011.7 1011.5 0.0
20/12:30pm 34.7 34.3 15.1 31 12.2 SSE 11 20 6 11 1012.6 1012.4 0.0
20/12:00pm 35.1 34.6 14.9 29 12.6 SE 11 28 6 15 1013.1 1012.9 0.0
20/11:30am 34.7 32.6 15.1 31 12.2 E 20 30 11 16 1013.7 1013.5 0.0
20/11:00am 33.9 33.5 16.3 35 11.1 ESE 13 19 7 10 1014.1 1013.9 0.0
20/10:30am 33.6 33.5 16.0 34 11.1 E 11 26 6 14 1014.6 1014.4 0.0
20/10:00am 32.1 33.2 19.7 48 8.2 E 13 24 7 13 1014.9 1014.7 0.0
20/09:30am 31.4 33.3 21.3 55 6.8 E 13 24 7 13 1015.2 1015.0 0.0
20/09:00am 29.7 31.5 21.1 60 5.7 NE 13 20 7 11 1015.1 1014.9 0.0
20/08:30am 28.9 31.5 21.9 66 4.7 NE 11 17 6 9 1015.0 1014.8 0.0
20/08:00am 26.7 30.1 21.7 74 3.3 ENE 6 9 3 5 1014.8 1014.6 0.0
20/07:30am 25.4 30.4 22.5 84 2.0 CALM 0 0 0 0 1014.3 1014.1 0.0
20/07:00am 22.8 26.8 20.5 87 1.5 CALM 0 0 0 0 1014.1 1013.9 0.0
20/06:30am 23.1 26.3 20.4 85 1.8 E 4 4 2 2 1013.7 1013.5 0.0
20/06:00am 23.8 27.3 21.1 85 1.8 E 4 6 2 3 1013.5 1013.3 0.0
20/05:30am 24.6 28.1 21.9 85 1.8 S 6 6 3 3 1013.5 1013.3 0.0
20/05:00am 24.3 28.6 21.2 83 2.0 CALM 0 0 0 0 1013.1 1012.9 0.0
20/04:30am 25.4 30.0 21.7 80 2.5 CALM 0 4 0 2 1013.0 1012.8 0.0
20/04:00am 25.7 29.7 22.0 80 2.5 ENE 4 6 2 3 1012.9 1012.7 0.0
20/03:30am 24.9 28.6 22.2 85 1.8 NE 6 9 3 5 1012.7 1012.5 0.0
20/03:00am 25.1 28.9 21.6 81 2.3 ENE 4 6 2 3 1012.6 1012.4 0.0
20/02:30am 25.5 29.0 21.8 80 2.5 NNE 6 7 3 4 1012.9 1012.7 0.0
20/02:00am 25.3 28.9 22.0 82 2.2 NE 6 7 3 4 1013.1 1012.9 0.0
20/01:30am 24.8 27.8 21.9 84 1.9 NNE 9 11 5 6 1013.2 1013.0 0.0
20/01:00am 24.5 28.9 21.4 83 2.0 CALM 0 0 0 0 1013.5 1013.3 0.0
20/12:30am 25.3 28.8 21.8 81 2.3 NNE 6 7 3 4 1013.6 1013.4 0.0
20/12:00am 24.9 28.9 21.4 81 2.3 N 2 6 1 3 1013.9 1013.7 0.0
 
Date/Time
CST
Tmp

°C
App
Tmp
°C
Dew
Point
°C
Rel
Hum
%
Delta-T

°C
Wind Press
QNH
hPa
Press
MSL
hPa
Rain
since
9 am
mm
Dir
 
Spd
km/h
Gust
km/h
Spd
kts
Gust
kts
19/11:30pm 25.1 29.1 21.4 80 2.4 WNW 2 4 1 2 1014.0 1013.8 0.0
19/11:00pm 26.2 29.8 22.1 78 2.7 NNE 6 7 3 4 1013.9 1013.7 0.0
19/10:30pm 27.0 30.7 22.2 75 3.2 NNE 6 9 3 5 1013.9 1013.7 0.0
19/10:00pm 26.9 31.5 22.5 77 3.0 NW 2 6 1 3 1013.4 1013.2 0.0

Latest Capital City Observations: Canberra | Sydney | Melbourne | Brisbane | Adelaide | Perth | Hobart | Darwin

Other Formats:

Comma delimited format used in spreadsheet applications
http://www.bom.gov.au/fwo/IDD60901/IDD60901.95121.axf

JavaScript Object Notation format (JSON) in row-major order
http://www.bom.gov.au/fwo/IDD60901/IDD60901.95121.json